createdAt,value
2022-09-22T00:02:23.431Z,3.00
2022-09-22T00:17:12.272Z,2.28
2022-09-22T00:19:43.315Z,5.60
2022-09-22T00:22:14.831Z,6.57
2022-09-22T00:24:45.784Z,2.78
2022-09-22T00:27:17.404Z,5.78
2022-09-22T00:29:47.120Z,4.72
2022-09-22T00:32:15.536Z,5.55
2022-09-22T00:34:45.301Z,7.32
2022-09-22T00:37:13.670Z,3.75
2022-09-22T00:39:43.080Z,11.20
2022-09-22T00:42:13.704Z,12.15
2022-09-22T00:44:43.382Z,3.47
2022-09-22T00:47:18.538Z,7.72
2022-09-22T00:49:50.518Z,5.65
2022-09-22T00:52:24.155Z,6.05
2022-09-22T00:54:54.380Z,4.20
2022-09-22T00:57:27.140Z,5.32
2022-09-22T00:59:55.765Z,6.97
2022-09-22T01:02:25.927Z,4.18
2022-09-22T01:04:55.725Z,3.05
2022-09-22T01:07:27.415Z,5.57
2022-09-22T01:09:56.504Z,6.85
2022-09-22T01:12:26.886Z,3.40
2022-09-22T01:15:13.165Z,3.92
2022-09-22T01:18:06.775Z,3.20
2022-09-22T01:20:55.074Z,3.05
2022-09-22T01:23:43.669Z,5.70
2022-09-22T01:26:11.836Z,4.28
2022-09-22T01:28:59.884Z,5.22
2022-09-22T01:31:33.353Z,4.35
2022-09-22T01:34:19.931Z,2.65
2022-09-22T01:36:50.575Z,2.70
2022-09-22T01:39:22.777Z,5.60
2022-09-22T01:41:58.248Z,3.55
2022-09-22T01:44:34.324Z,5.53
2022-09-22T01:47:07.380Z,3.85
2022-09-22T01:52:09.263Z,2.42
2022-09-22T01:54:42.523Z,3.00
2022-09-22T01:57:29.697Z,3.70
2022-09-22T02:00:02.641Z,7.18
2022-09-22T02:03:07.602Z,9.02
2022-09-22T02:05:43.662Z,5.72
2022-09-22T02:08:18.156Z,3.05
2022-09-22T02:10:48.135Z,3.05
2022-09-22T02:13:17.179Z,2.33
2022-09-22T02:16:04.105Z,4.40
2022-09-22T02:18:43.517Z,2.88
2022-09-22T02:21:14.892Z,4.65
2022-09-22T02:23:46.298Z,4.63
2022-09-22T02:26:18.023Z,3.25
2022-09-22T02:28:47.447Z,5.75
2022-09-22T02:31:20.747Z,9.57
2022-09-22T02:36:39.748Z,5.93
2022-09-22T02:39:19.165Z,4.63
2022-09-22T02:42:06.543Z,5.47
2022-09-22T02:44:44.104Z,6.68
2022-09-22T02:47:14.871Z,3.97
2022-09-22T02:49:44.062Z,3.53
2022-09-22T02:52:13.932Z,3.85
2022-09-22T02:54:42.495Z,3.33
2022-09-22T02:57:12.765Z,7.72
2022-09-22T02:59:42.308Z,3.95
2022-09-22T03:02:13.258Z,3.60
2022-09-22T03:04:42.684Z,2.63
2022-09-22T03:07:12.709Z,5.15
2022-09-22T03:09:40.909Z,4.25
2022-09-22T03:12:09.416Z,3.58
2022-09-22T03:14:43.958Z,2.75
2022-09-22T03:17:13.146Z,3.35
2022-09-22T03:19:42.541Z,4.95
2022-09-22T03:22:12.331Z,2.80
2022-09-22T03:24:40.792Z,6.75
2022-09-22T03:27:09.441Z,4.63
2022-09-22T03:29:38.048Z,3.38
2022-09-22T03:32:09.729Z,2.75
2022-09-22T03:34:39.140Z,3.85
2022-09-22T03:37:08.421Z,2.30
2022-09-22T03:39:45.816Z,3.50
2022-09-22T03:42:16.013Z,3.38
2022-09-22T03:44:46.223Z,5.07
2022-09-22T03:47:15.971Z,5.93
2022-09-22T03:49:45.786Z,3.33
2022-09-22T03:52:16.640Z,5.55
2022-09-22T03:54:45.434Z,3.28
2022-09-22T03:57:17.245Z,5.72
2022-09-22T03:59:47.226Z,5.28
2022-09-22T04:02:16.901Z,6.20
2022-09-22T04:04:45.596Z,6.88
2022-09-22T04:07:14.198Z,4.85
2022-09-22T04:09:42.767Z,5.68
2022-09-22T04:12:11.859Z,9.23
2022-09-22T04:14:43.217Z,3.65
2022-09-22T04:17:14.028Z,3.83
2022-09-22T04:19:46.866Z,4.43
2022-09-22T04:22:17.036Z,4.95
2022-09-22T04:24:48.300Z,3.30
2022-09-22T04:27:20.342Z,8.75
2022-09-22T04:29:53.159Z,5.75
2022-09-22T04:32:22.745Z,11.45
2022-09-22T04:34:51.941Z,8.43
2022-09-22T04:37:20.899Z,9.55
2022-09-22T04:39:50.361Z,6.22
2022-09-22T04:42:18.943Z,7.75
2022-09-22T04:44:47.521Z,4.82
2022-09-22T04:47:18.036Z,7.90
2022-09-22T04:49:49.916Z,6.20
2022-09-22T04:52:21.129Z,3.85
2022-09-22T04:54:50.140Z,9.80
2022-09-22T04:57:20.582Z,4.82
2022-09-22T04:59:51.117Z,5.20
2022-09-22T05:02:19.566Z,5.15
2022-09-22T05:04:49.133Z,4.88
2022-09-22T05:07:19.182Z,5.78
2022-09-22T05:09:49.115Z,10.32
2022-09-22T05:12:21.288Z,3.83
2022-09-22T05:14:50.791Z,3.55
2022-09-22T05:17:20.703Z,5.18
2022-09-22T05:19:49.918Z,7.90
2022-09-22T05:22:20.437Z,11.60
2022-09-22T05:24:48.936Z,27.58
2022-09-22T05:27:18.255Z,34.40
2022-09-22T05:29:47.134Z,28.98
2022-09-22T05:32:15.504Z,24.48
2022-09-22T05:34:43.728Z,26.00
2022-09-22T05:37:17.301Z,22.38
2022-09-22T05:39:46.166Z,16.20
2022-09-22T05:42:14.686Z,12.63
2022-09-22T05:44:43.508Z,11.48
2022-09-22T05:47:13.232Z,12.13
2022-09-22T05:49:42.258Z,13.32
2022-09-22T05:52:10.881Z,12.43
2022-09-22T05:54:40.338Z,9.90
2022-09-22T05:57:09.332Z,10.00
2022-09-22T05:59:39.366Z,10.00
2022-09-22T06:02:25.124Z,7.70
2022-09-22T06:04:55.361Z,9.52
2022-09-22T06:07:25.515Z,8.18
2022-09-22T06:09:54.000Z,9.68
2022-09-22T06:12:23.298Z,12.95
2022-09-22T06:14:51.859Z,10.02
2022-09-22T06:17:23.141Z,18.95
2022-09-22T06:19:53.924Z,11.50
2022-09-22T06:22:24.253Z,11.73
2022-09-22T06:24:54.598Z,13.80
2022-09-22T06:27:23.494Z,12.10
2022-09-22T06:29:52.941Z,9.88
2022-09-22T06:32:22.389Z,9.05
2022-09-22T06:34:51.120Z,10.88
2022-09-22T06:37:20.308Z,11.02
2022-09-22T06:39:50.329Z,8.10
2022-09-22T06:42:20.152Z,10.10
2022-09-22T06:44:50.284Z,9.60
2022-09-22T06:47:19.209Z,12.38
2022-09-22T06:49:49.944Z,7.10
2022-09-22T06:52:19.024Z,15.32
2022-09-22T06:54:50.211Z,8.52
2022-09-22T06:57:20.902Z,6.50
2022-09-22T06:59:52.016Z,10.05
2022-09-22T07:02:23.347Z,5.95
2022-09-22T07:04:58.920Z,6.25
2022-09-22T07:07:32.017Z,9.20
2022-09-22T07:10:00.757Z,5.93
2022-09-22T07:12:39.791Z,8.18
2022-09-22T07:15:08.792Z,6.03
2022-09-22T07:17:56.613Z,4.13
2022-09-22T07:20:28.884Z,8.95
2022-09-22T07:23:00.612Z,5.45
2022-09-22T07:25:35.944Z,5.10
2022-09-22T07:28:06.142Z,4.03
2022-09-22T07:30:38.158Z,4.30
2022-09-22T07:33:19.888Z,5.00
2022-09-22T07:35:49.666Z,3.63
2022-09-22T07:38:20.831Z,5.63
2022-09-22T07:40:54.508Z,4.32
2022-09-22T07:45:55.618Z,2.95
2022-09-22T07:48:42.878Z,2.85
2022-09-22T07:51:18.372Z,4.82
2022-09-22T07:53:50.184Z,5.22
2022-09-22T07:56:21.248Z,4.85
2022-09-22T07:58:53.373Z,4.65
2022-09-22T08:01:26.262Z,4.43
2022-09-22T08:03:54.852Z,3.40
2022-09-22T08:06:24.070Z,2.30
2022-09-22T08:08:56.483Z,2.17
2022-09-22T08:11:26.304Z,5.00
2022-09-22T08:13:59.915Z,2.42
2022-09-22T08:16:31.137Z,1.85
2022-09-22T08:19:03.275Z,2.95
2022-09-22T08:21:35.107Z,3.45
2022-09-22T08:24:09.135Z,6.50
2022-09-22T08:26:44.742Z,2.45
2022-09-22T08:29:19.569Z,2.20
2022-09-22T08:31:49.318Z,2.70
2022-09-22T08:34:20.155Z,1.52
2022-09-22T08:36:50.006Z,1.67
2022-09-22T08:39:19.955Z,5.30
2022-09-22T08:41:49.238Z,2.67
2022-09-22T08:44:22.111Z,3.08
2022-09-22T08:46:53.498Z,5.43
2022-09-22T08:49:44.378Z,1.17
2022-09-22T08:52:15.692Z,3.20
2022-09-22T08:54:45.139Z,5.38
2022-09-22T08:57:21.422Z,4.55
2022-09-22T08:59:55.754Z,1.42
2022-09-22T09:02:29.784Z,1.33
2022-09-22T09:05:17.478Z,3.72
2022-09-22T09:08:04.713Z,1.10
2022-09-22T09:10:38.737Z,2.25
2022-09-22T09:13:09.545Z,2.08
2022-09-22T09:15:56.168Z,3.28
2022-09-22T09:18:28.584Z,4.28
2022-09-22T09:20:59.477Z,2.13
2022-09-22T09:26:34.039Z,2.95
2022-09-22T09:29:06.324Z,2.70
2022-09-22T09:31:42.224Z,1.80
2022-09-22T09:34:15.686Z,2.13
2022-09-22T09:36:44.609Z,1.10
2022-09-22T09:39:32.544Z,1.63
2022-09-22T09:42:02.262Z,1.13
2022-09-22T09:44:40.115Z,0.50
2022-09-22T09:47:11.668Z,4.13
2022-09-22T09:49:41.117Z,1.08
2022-09-22T09:52:12.241Z,1.88
2022-09-22T09:54:41.644Z,1.98
2022-09-22T09:57:16.151Z,4.20
2022-09-22T10:00:15.204Z,2.53
2022-09-22T10:03:04.476Z,0.93
2022-09-22T10:05:37.429Z,1.10
2022-09-22T10:08:16.258Z,0.85
2022-09-22T10:10:45.576Z,1.27
2022-09-22T10:13:17.473Z,1.15
2022-09-22T10:16:00.457Z,1.10
2022-09-22T10:18:35.276Z,10.93
2022-09-22T10:21:16.200Z,1.52
2022-09-22T10:23:46.575Z,2.55
2022-09-22T10:26:14.856Z,2.08
2022-09-22T10:28:43.350Z,0.60
2022-09-22T10:31:25.131Z,0.73
2022-09-22T10:34:01.000Z,0.90
2022-09-22T10:36:33.188Z,3.20
2022-09-22T10:39:02.010Z,2.35
2022-09-22T10:41:34.258Z,1.00
2022-09-22T10:47:14.404Z,0.65
2022-09-22T10:49:53.404Z,1.88
2022-09-22T10:52:36.664Z,0.73
2022-09-22T10:55:10.110Z,1.75
2022-09-22T10:57:53.323Z,3.25
2022-09-22T11:00:22.508Z,1.00
2022-09-22T11:03:08.952Z,1.40
2022-09-22T11:06:06.917Z,2.25
2022-09-22T11:09:21.760Z,0.98
2022-09-22T11:12:07.351Z,0.45
2022-09-22T11:14:45.207Z,1.70
2022-09-22T11:17:21.001Z,0.68
2022-09-22T11:19:49.014Z,0.82
2022-09-22T11:22:35.486Z,1.77
2022-09-22T11:25:22.668Z,0.73
2022-09-22T11:28:03.135Z,1.20
2022-09-22T11:30:54.600Z,1.90
2022-09-22T11:33:31.175Z,1.65
2022-09-22T11:36:14.862Z,0.70
2022-09-22T11:38:55.114Z,1.17
2022-09-22T11:41:31.340Z,3.50
2022-09-22T11:44:18.224Z,1.00
2022-09-22T11:46:54.814Z,1.50
2022-09-22T11:49:46.183Z,1.10
2022-09-22T11:52:20.280Z,3.08
2022-09-22T11:54:54.000Z,2.63
2022-09-22T11:57:24.282Z,2.65
2022-09-22T11:59:54.135Z,1.10
2022-09-22T12:02:41.001Z,0.52
2022-09-22T12:05:18.315Z,0.98
2022-09-22T12:08:00.397Z,1.42
2022-09-22T12:13:06.539Z,0.88
2022-09-22T12:15:43.321Z,2.92
2022-09-22T12:18:27.108Z,3.90
2022-09-22T12:21:00.360Z,0.98
2022-09-22T12:23:34.058Z,2.33
2022-09-22T12:26:04.816Z,2.38
2022-09-22T12:28:37.940Z,1.50
2022-09-22T12:31:14.096Z,0.85
2022-09-22T12:34:09.407Z,1.40
2022-09-22T12:36:40.962Z,3.72
2022-09-22T12:39:12.572Z,0.82
2022-09-22T12:42:01.186Z,0.85
2022-09-22T12:44:36.252Z,0.80
2022-09-22T12:47:06.728Z,1.17
2022-09-22T12:49:35.551Z,0.70
2022-09-22T12:52:03.946Z,1.23
2022-09-22T12:54:38.021Z,1.10
2022-09-22T12:57:09.574Z,1.08
2022-09-22T12:59:38.516Z,2.40
2022-09-22T13:02:15.722Z,1.02
2022-09-22T13:05:04.329Z,0.88
2022-09-22T13:07:38.297Z,2.17
2022-09-22T13:12:39.874Z,1.23
2022-09-22T13:15:08.195Z,1.70
2022-09-22T13:17:42.288Z,1.73
2022-09-22T13:20:17.892Z,1.42
2022-09-22T13:22:47.479Z,0.70
2022-09-22T13:25:18.756Z,1.00
2022-09-22T13:27:47.545Z,0.80
2022-09-22T13:30:16.198Z,1.50
2022-09-22T13:32:59.298Z,1.00
2022-09-22T13:35:41.554Z,0.90
2022-09-22T13:38:12.611Z,1.70
2022-09-22T13:40:46.129Z,0.77
2022-09-22T13:43:21.437Z,2.75
2022-09-22T13:45:51.447Z,0.68
2022-09-22T13:48:22.286Z,3.03
2022-09-22T13:50:53.685Z,2.55
2022-09-22T13:53:25.111Z,4.07
2022-09-22T13:55:54.104Z,1.58
2022-09-22T13:58:25.096Z,2.95
2022-09-22T14:01:12.515Z,1.98
2022-09-22T14:03:44.879Z,1.33
2022-09-22T14:06:15.038Z,0.95
2022-09-22T14:08:45.897Z,3.22
2022-09-22T14:11:20.659Z,2.30
2022-09-22T14:13:54.946Z,2.95
2022-09-22T14:16:25.792Z,0.80
2022-09-22T14:19:21.080Z,0.80
2022-09-22T14:22:00.748Z,2.83
2022-09-22T14:24:31.199Z,1.92
2022-09-22T14:27:04.196Z,0.88
2022-09-22T14:29:35.430Z,2.13
2022-09-22T14:32:12.961Z,1.15
2022-09-22T14:34:46.505Z,2.25
2022-09-22T14:37:29.387Z,1.33
2022-09-22T14:39:59.010Z,0.88
2022-09-22T14:42:29.403Z,1.90
2022-09-22T14:45:07.637Z,2.97
2022-09-22T14:47:40.879Z,1.63
2022-09-22T14:50:19.787Z,2.33
2022-09-22T14:52:57.806Z,1.20
2022-09-22T14:55:32.350Z,1.10
2022-09-22T14:58:09.249Z,2.15
2022-09-22T15:00:55.567Z,2.30
2022-09-22T15:03:30.328Z,0.85
2022-09-22T15:06:07.148Z,1.25
2022-09-22T15:08:35.843Z,1.70
2022-09-22T15:11:06.937Z,2.13
2022-09-22T15:13:36.061Z,4.00
2022-09-22T15:16:05.384Z,1.17
2022-09-22T15:18:34.959Z,1.45
2022-09-22T15:21:12.955Z,3.05
2022-09-22T15:23:44.804Z,1.80
2022-09-22T15:26:25.455Z,1.15
2022-09-22T15:28:58.092Z,1.10
2022-09-22T15:31:29.556Z,0.80
2022-09-22T15:34:02.627Z,1.08
2022-09-22T15:36:38.486Z,0.85
2022-09-22T15:39:08.637Z,1.20
2022-09-22T15:41:38.568Z,2.83
2022-09-22T15:44:09.573Z,1.70
2022-09-22T15:46:41.247Z,1.20
2022-09-22T15:49:16.707Z,2.42
2022-09-22T15:51:47.073Z,2.28
2022-09-22T15:54:18.287Z,1.52
2022-09-22T15:56:49.561Z,1.40
2022-09-22T15:59:21.726Z,2.95
2022-09-22T16:01:51.829Z,0.68
2022-09-22T16:04:21.904Z,2.28
2022-09-22T16:06:55.685Z,1.77
2022-09-22T16:09:25.789Z,1.60
2022-09-22T16:11:54.923Z,1.15
2022-09-22T16:14:23.775Z,0.95
2022-09-22T16:16:52.999Z,2.60
2022-09-22T16:19:24.477Z,2.53
2022-09-22T16:21:54.328Z,2.90
2022-09-22T16:24:23.961Z,4.82
2022-09-22T16:26:54.308Z,3.55
2022-09-22T16:29:24.571Z,21.55
2022-09-22T16:31:54.444Z,2.75
2022-09-22T16:34:25.156Z,1.80
2022-09-22T16:36:57.816Z,4.25
2022-09-22T16:39:27.196Z,7.95
2022-09-22T16:41:57.604Z,0.95
2022-09-22T16:44:29.192Z,1.90
2022-09-22T16:46:59.978Z,3.88
2022-09-22T16:49:31.289Z,3.53
2022-09-22T16:52:00.586Z,2.08
2022-09-22T16:54:34.382Z,1.50
2022-09-22T16:57:03.200Z,3.60
2022-09-22T16:59:41.784Z,1.25
2022-09-22T17:02:12.573Z,1.50
2022-09-22T17:04:46.809Z,2.35
2022-09-22T17:07:17.325Z,2.65
2022-09-22T17:09:45.936Z,1.00
2022-09-22T17:12:14.476Z,1.30
2022-09-22T17:14:43.566Z,2.30
2022-09-22T17:17:14.277Z,1.10
2022-09-22T17:19:48.086Z,4.57
2022-09-22T17:22:18.292Z,1.13
2022-09-22T17:24:47.053Z,1.35
2022-09-22T17:27:17.404Z,0.88
2022-09-22T17:29:46.157Z,1.23
2022-09-22T17:32:16.595Z,2.00
2022-09-22T17:34:46.659Z,1.95
2022-09-22T17:37:20.196Z,1.20
2022-09-22T17:39:52.671Z,1.48
2022-09-22T17:42:21.782Z,1.67
2022-09-22T17:44:56.943Z,2.10
2022-09-22T17:47:46.853Z,1.45
2022-09-22T17:50:33.502Z,1.20
2022-09-22T17:53:21.852Z,2.17
2022-09-22T17:55:50.964Z,1.10
2022-09-22T17:58:20.303Z,3.08
2022-09-22T18:00:49.695Z,4.15
2022-09-22T18:03:25.051Z,4.53
2022-09-22T18:05:58.522Z,4.28
2022-09-22T18:08:28.756Z,3.67
2022-09-22T18:10:57.654Z,4.75
2022-09-22T18:13:26.016Z,4.75
2022-09-22T18:15:55.150Z,4.95
2022-09-22T18:18:24.042Z,7.25
2022-09-22T18:20:53.888Z,7.22
2022-09-22T18:23:28.350Z,5.88
2022-09-22T18:26:01.806Z,10.45
2022-09-22T18:28:36.617Z,6.80
2022-09-22T18:31:05.490Z,6.80
2022-09-22T18:33:43.462Z,4.68
2022-09-22T18:36:16.855Z,5.38
2022-09-22T18:38:48.033Z,7.03
2022-09-22T18:41:19.724Z,7.47
2022-09-22T18:43:51.194Z,2.92
2022-09-22T18:46:23.562Z,3.22
2022-09-22T18:48:57.441Z,5.15
2022-09-22T18:51:27.131Z,4.70
2022-09-22T18:53:56.654Z,2.25
2022-09-22T18:56:26.358Z,1.90
2022-09-22T18:58:55.750Z,3.15
2022-09-22T19:01:24.786Z,5.82
2022-09-22T19:03:53.526Z,2.17
2022-09-22T19:06:23.026Z,3.03
2022-09-22T19:08:51.670Z,1.42
2022-09-22T19:11:21.548Z,4.10
2022-09-22T19:13:53.715Z,2.22
2022-09-22T19:16:25.708Z,5.93
2022-09-22T19:18:55.700Z,2.47
2022-09-22T19:21:26.703Z,4.63
2022-09-22T19:23:56.155Z,1.95
2022-09-22T19:26:26.034Z,2.72
2022-09-22T19:29:01.619Z,1.27
2022-09-22T19:31:34.661Z,3.88
2022-09-22T19:34:05.428Z,2.70
2022-09-22T19:36:37.243Z,2.95
2022-09-22T19:39:08.573Z,4.30
2022-09-22T19:41:40.549Z,1.75
2022-09-22T19:44:10.036Z,2.97
2022-09-22T19:46:39.972Z,5.10
2022-09-22T19:49:08.774Z,1.65
2022-09-22T19:51:39.324Z,1.58
2022-09-22T19:54:09.641Z,8.70
2022-09-22T19:56:40.663Z,3.83
2022-09-22T19:59:11.580Z,13.60
2022-09-22T20:01:45.446Z,10.40
2022-09-22T20:04:14.963Z,8.90
2022-09-22T20:06:45.187Z,12.55
2022-09-22T20:09:15.282Z,14.45
2022-09-22T20:11:47.885Z,8.43
2022-09-22T20:14:25.351Z,7.85
2022-09-22T20:16:55.980Z,6.65
2022-09-22T20:19:25.461Z,7.72
2022-09-22T20:22:17.492Z,5.22
2022-09-22T20:24:59.068Z,3.40
2022-09-22T20:27:31.573Z,4.07
2022-09-22T20:30:02.673Z,2.40
2022-09-22T20:32:38.333Z,2.15
2022-09-22T20:35:07.639Z,4.43
2022-09-22T20:37:42.571Z,4.10
2022-09-22T20:40:19.918Z,5.78
2022-09-22T20:43:06.630Z,3.80
2022-09-22T20:45:35.895Z,2.72
2022-09-22T20:48:05.065Z,3.67
2022-09-22T20:50:35.013Z,2.75
2022-09-22T20:53:06.069Z,2.90
2022-09-22T20:55:35.413Z,6.38
2022-09-22T20:58:06.188Z,2.17
2022-09-22T21:00:35.266Z,5.75
2022-09-22T21:03:23.229Z,2.40
2022-09-22T21:05:52.761Z,2.63
2022-09-22T21:08:47.475Z,3.45
2022-09-22T21:11:16.779Z,3.90
2022-09-22T21:13:46.855Z,3.47
2022-09-22T21:16:17.438Z,2.92
2022-09-22T21:18:47.649Z,2.25
2022-09-22T21:21:17.895Z,3.83
2022-09-22T21:23:48.310Z,5.25
2022-09-22T21:26:18.485Z,10.23
2022-09-22T21:28:50.188Z,2.45
2022-09-22T21:31:19.805Z,2.20
2022-09-22T21:33:49.741Z,4.18
2022-09-22T21:36:19.917Z,1.67
2022-09-22T21:38:51.484Z,3.17
2022-09-22T21:41:23.269Z,5.82
2022-09-22T21:43:53.628Z,4.97
2022-09-22T21:46:24.548Z,2.65
2022-09-22T21:49:02.656Z,7.30
2022-09-22T21:51:41.980Z,2.83
2022-09-22T21:54:23.134Z,4.05
2022-09-22T21:56:51.472Z,2.75
2022-09-22T21:59:21.691Z,2.75
2022-09-22T22:01:51.363Z,5.43
2022-09-22T22:04:19.931Z,6.00
2022-09-22T22:06:49.297Z,7.93
2022-09-22T22:09:23.299Z,2.25
2022-09-22T22:11:55.562Z,7.32
2022-09-22T22:14:25.573Z,2.97
2022-09-22T22:16:55.904Z,2.63
2022-09-22T22:19:26.803Z,4.13
2022-09-22T22:21:57.175Z,5.80
2022-09-22T22:24:33.946Z,2.97
2022-09-22T22:27:06.772Z,5.30
2022-09-22T22:29:39.780Z,3.47
2022-09-22T22:32:09.643Z,5.40
2022-09-22T22:34:38.563Z,7.15
2022-09-22T22:37:09.638Z,5.68
2022-09-22T22:39:38.330Z,4.65
2022-09-22T22:42:07.287Z,7.22
2022-09-22T22:44:37.296Z,2.65
2022-09-22T22:47:08.500Z,4.57
2022-09-22T22:49:37.985Z,3.10
2022-09-22T22:52:06.528Z,7.15
2022-09-22T22:54:35.179Z,3.17
2022-09-22T22:57:06.116Z,3.67
2022-09-22T22:59:34.995Z,4.63
2022-09-22T23:02:06.028Z,4.45
2022-09-22T23:04:40.912Z,4.70
2022-09-22T23:07:10.012Z,5.13
2022-09-22T23:09:38.332Z,4.75
2022-09-22T23:12:10.562Z,4.47
2022-09-22T23:14:39.316Z,3.55
2022-09-22T23:17:08.553Z,4.25
2022-09-22T23:19:40.679Z,4.78
2022-09-22T23:22:10.124Z,2.33
2022-09-22T23:24:40.031Z,3.45
2022-09-22T23:27:10.392Z,7.85
2022-09-22T23:29:39.497Z,3.72
2022-09-22T23:32:08.944Z,2.03
2022-09-22T23:34:37.549Z,3.15
2022-09-22T23:37:06.286Z,6.43
2022-09-22T23:39:47.017Z,2.80
2022-09-22T23:42:15.901Z,4.15
2022-09-22T23:44:44.348Z,1.88
2022-09-22T23:47:16.181Z,3.13
2022-09-22T23:49:44.745Z,3.58
2022-09-22T23:52:13.035Z,3.50
2022-09-22T23:54:42.299Z,4.47
2022-09-22T23:57:12.795Z,3.05
2022-09-22T23:59:42.807Z,2.80
